createdAt,value
2022-12-18T00:00:09.521Z,-6.59
2022-12-18T00:02:44.033Z,-6.83
2022-12-18T00:05:12.877Z,-6.65
2022-12-18T00:07:40.873Z,-6.68
2022-12-18T00:10:09.875Z,-6.96
2022-12-18T00:12:37.935Z,-6.76
2022-12-18T00:15:06.458Z,-6.59
2022-12-18T00:17:34.617Z,-6.49
2022-12-18T00:20:03.040Z,-6.47
2022-12-18T00:22:30.963Z,-6.56
2022-12-18T00:24:59.227Z,-6.61
2022-12-18T00:27:27.185Z,-6.60
2022-12-18T00:29:55.071Z,-6.71
2022-12-18T00:32:23.258Z,-6.89
2022-12-18T00:34:51.646Z,-6.90
2022-12-18T00:37:20.408Z,-6.86
2022-12-18T00:39:52.580Z,-7.15
2022-12-18T00:42:40.529Z,-6.84
2022-12-18T00:45:12.589Z,-6.92
2022-12-18T00:47:41.721Z,-6.95
2022-12-18T00:50:11.415Z,-7.29
2022-12-18T00:52:42.895Z,-6.83
2022-12-18T00:55:12.114Z,-6.75
2022-12-18T00:57:40.755Z,-6.75
2022-12-18T01:00:14.205Z,-7.33
2022-12-18T01:02:45.349Z,-7.21
2022-12-18T01:05:15.136Z,-6.98
2022-12-18T01:07:43.213Z,-7.21
2022-12-18T01:10:13.477Z,-6.92
2022-12-18T01:12:42.068Z,-6.78
2022-12-18T01:15:11.506Z,-6.98
2022-12-18T01:17:39.569Z,-6.83
2022-12-18T01:20:10.366Z,-7.02
2022-12-18T01:22:38.336Z,-7.22
2022-12-18T01:25:09.495Z,-6.78
2022-12-18T01:27:38.238Z,-6.85
2022-12-18T01:30:07.185Z,-7.15
2022-12-18T01:32:35.250Z,-6.73
2022-12-18T01:35:04.654Z,-6.70
2022-12-18T01:37:32.601Z,-6.79
2022-12-18T01:40:00.593Z,-6.96
2022-12-18T01:42:28.790Z,-6.85
2022-12-18T01:45:05.038Z,-6.93
2022-12-18T01:47:54.685Z,-6.94
2022-12-18T01:50:33.733Z,-6.83
2022-12-18T01:53:18.450Z,-7.17
2022-12-18T01:55:57.297Z,-7.36
2022-12-18T01:58:43.525Z,-7.00
2022-12-18T02:01:12.054Z,-6.81
2022-12-18T02:03:44.537Z,-6.76
2022-12-18T02:06:40.744Z,-6.91
2022-12-18T02:09:18.350Z,-6.70
2022-12-18T02:12:05.862Z,-6.79
2022-12-18T02:14:50.403Z,-7.04
2022-12-18T02:17:29.656Z,-6.71
2022-12-18T02:20:11.838Z,-6.65
2022-12-18T02:22:43.215Z,-6.56
2022-12-18T02:25:37.188Z,-6.54
2022-12-18T02:28:11.447Z,-6.51
2022-12-18T02:30:42.530Z,-6.51
2022-12-18T02:33:13.016Z,-6.77
2022-12-18T02:35:53.737Z,-6.38
2022-12-18T02:38:31.922Z,-6.67
2022-12-18T02:41:07.573Z,-6.39
2022-12-18T02:43:37.450Z,-6.54
2022-12-18T02:46:40.854Z,-6.39
2022-12-18T02:49:35.689Z,-6.28
2022-12-18T02:52:53.393Z,-6.29
2022-12-18T02:56:04.706Z,-6.31
2022-12-18T02:59:15.791Z,-6.59
2022-12-18T03:02:24.944Z,-6.38
2022-12-18T03:05:17.734Z,-6.41
2022-12-18T03:08:05.030Z,-6.28
2022-12-18T03:10:45.000Z,-6.19
2022-12-18T03:13:33.243Z,-6.30
2022-12-18T03:16:04.370Z,-6.23
2022-12-18T03:18:47.539Z,-6.30
2022-12-18T03:21:19.476Z,-6.30
2022-12-18T03:23:53.671Z,-6.43
2022-12-18T03:26:29.175Z,-6.43
2022-12-18T03:29:10.241Z,-6.35
2022-12-18T03:31:43.936Z,-6.48
2022-12-18T03:34:22.817Z,-6.13
2022-12-18T03:36:51.929Z,-6.06
2022-12-18T03:39:23.043Z,-6.02
2022-12-18T03:42:28.153Z,-5.97
2022-12-18T03:45:31.631Z,-6.04
2022-12-18T03:48:17.412Z,-5.97
2022-12-18T03:50:58.664Z,-5.88
2022-12-18T03:53:39.586Z,-5.84
2022-12-18T03:56:10.173Z,-5.87
2022-12-18T03:58:45.187Z,-5.92
2022-12-18T04:01:34.921Z,-5.83
2022-12-18T04:04:06.010Z,-5.75
2022-12-18T04:06:38.328Z,-5.81
2022-12-18T04:09:07.081Z,-5.78
2022-12-18T04:11:40.769Z,-5.75
2022-12-18T04:14:24.470Z,-5.78
2022-12-18T04:16:58.256Z,-5.74
2022-12-18T04:19:32.010Z,-5.78
2022-12-18T04:22:01.259Z,-5.67
2022-12-18T04:24:33.300Z,-6.01
2022-12-18T04:27:11.459Z,-5.71
2022-12-18T04:29:46.406Z,-5.66
2022-12-18T04:32:14.477Z,-5.80
2022-12-18T04:34:44.965Z,-5.62
2022-12-18T04:37:13.654Z,-5.69
2022-12-18T04:39:41.962Z,-5.62
2022-12-18T04:42:17.213Z,-5.64
2022-12-18T04:44:45.829Z,-5.61
2022-12-18T04:47:13.785Z,-5.53
2022-12-18T04:49:41.876Z,-5.64
2022-12-18T04:52:10.314Z,-5.45
2022-12-18T04:54:38.450Z,-5.70
2022-12-18T04:57:06.918Z,-5.43
2022-12-18T04:59:35.532Z,-5.36
2022-12-18T05:02:04.120Z,-5.37
2022-12-18T05:04:32.357Z,-5.62
2022-12-18T05:07:00.638Z,-5.54
2022-12-18T05:09:28.633Z,-5.37
2022-12-18T05:11:56.792Z,-5.29
2022-12-18T05:14:24.919Z,-5.42
2022-12-18T05:16:56.704Z,-5.36
2022-12-18T05:19:27.576Z,-5.41
2022-12-18T05:21:55.593Z,-5.63
2022-12-18T05:24:23.636Z,-5.71
2022-12-18T05:26:52.061Z,-5.54
2022-12-18T05:29:20.155Z,-5.79
2022-12-18T05:31:48.189Z,-5.42
2022-12-18T05:34:16.899Z,-5.43
2022-12-18T05:36:45.004Z,-5.41
2022-12-18T05:39:13.051Z,-5.42
2022-12-18T05:41:41.293Z,-5.44
2022-12-18T05:44:09.587Z,-5.47
2022-12-18T05:46:37.950Z,-5.43
2022-12-18T05:49:06.590Z,-5.43
2022-12-18T05:51:34.720Z,-5.38
2022-12-18T05:54:03.899Z,-5.39
2022-12-18T05:56:34.093Z,-5.42
2022-12-18T05:59:02.020Z,-5.40
2022-12-18T06:01:31.669Z,-5.64
2022-12-18T06:04:01.064Z,-5.45
2022-12-18T06:06:30.146Z,-5.40
2022-12-18T06:08:58.612Z,-5.34
2022-12-18T06:11:28.248Z,-5.58
2022-12-18T06:13:59.475Z,-5.23
2022-12-18T06:16:30.422Z,-5.49
2022-12-18T06:19:01.357Z,-5.28
2022-12-18T06:21:31.732Z,-5.90
2022-12-18T06:24:01.002Z,-5.29
2022-12-18T06:26:29.178Z,-5.17
2022-12-18T06:28:57.569Z,-5.50
2022-12-18T06:31:27.007Z,-5.09
2022-12-18T06:33:55.236Z,-5.08
2022-12-18T06:36:24.141Z,-5.40
2022-12-18T06:38:52.251Z,-5.13
2022-12-18T06:41:22.869Z,-5.23
2022-12-18T06:43:55.594Z,-5.08
2022-12-18T06:46:26.226Z,-5.11
2022-12-18T06:48:54.680Z,-5.12
2022-12-18T06:51:25.104Z,-5.13
2022-12-18T06:53:53.151Z,-5.00
2022-12-18T06:56:21.550Z,-5.16
2022-12-18T06:58:50.230Z,-4.91
2022-12-18T07:01:18.614Z,-4.92
2022-12-18T07:03:47.145Z,-5.04
2022-12-18T07:06:18.489Z,-4.69
2022-12-18T07:08:47.693Z,-4.85
2022-12-18T07:11:16.496Z,-4.71
2022-12-18T07:13:46.783Z,-5.18
2022-12-18T07:16:24.730Z,-5.08
2022-12-18T07:18:56.882Z,-4.67
2022-12-18T07:21:26.683Z,-4.88
2022-12-18T07:23:55.154Z,-4.97
2022-12-18T07:26:23.732Z,-4.87
2022-12-18T07:28:55.869Z,-4.87
2022-12-18T07:31:24.500Z,-5.10
2022-12-18T07:33:53.223Z,-5.02
2022-12-18T07:36:26.045Z,-4.63
2022-12-18T07:38:54.446Z,-5.07
2022-12-18T07:41:23.077Z,-4.75
2022-12-18T07:43:51.972Z,-4.77
2022-12-18T07:46:20.818Z,-5.28
2022-12-18T07:48:49.738Z,-4.57
2022-12-18T07:51:20.080Z,-4.46
2022-12-18T07:53:51.162Z,-4.50
2022-12-18T07:56:30.533Z,-4.42
2022-12-18T07:59:00.626Z,-4.45
2022-12-18T08:01:29.379Z,-4.52
2022-12-18T08:03:58.507Z,-4.29
2022-12-18T08:06:27.037Z,-4.38
2022-12-18T08:08:57.100Z,-4.40
2022-12-18T08:11:28.009Z,-4.42
2022-12-18T08:13:59.164Z,-4.56
2022-12-18T08:16:29.157Z,-4.36
2022-12-18T08:18:57.452Z,-4.32
2022-12-18T08:21:32.199Z,-4.53
2022-12-18T08:24:02.958Z,-4.23
2022-12-18T08:26:32.495Z,-4.15
2022-12-18T08:29:01.558Z,-4.11
2022-12-18T08:31:31.385Z,-4.18
2022-12-18T08:33:59.744Z,-4.26
2022-12-18T08:36:28.003Z,-4.11
2022-12-18T08:38:56.418Z,-4.13
2022-12-18T08:41:24.709Z,-4.06
2022-12-18T08:44:11.717Z,-4.37
2022-12-18T08:46:43.221Z,-3.96
2022-12-18T08:49:12.885Z,-3.98
2022-12-18T08:51:41.550Z,-4.15
2022-12-18T08:54:14.840Z,-3.98
2022-12-18T08:56:43.065Z,-3.79
2022-12-18T08:59:18.789Z,-3.93
2022-12-18T09:01:49.132Z,-4.00
2022-12-18T09:04:18.072Z,-3.86
2022-12-18T09:06:46.385Z,-4.11
2022-12-18T09:09:14.665Z,-4.28
2022-12-18T09:11:42.659Z,-4.18
2022-12-18T09:14:11.833Z,-4.31
2022-12-18T09:16:40.164Z,-4.10
2022-12-18T09:19:08.213Z,-4.02
2022-12-18T09:21:42.240Z,-4.15
2022-12-18T09:24:15.745Z,-3.89
2022-12-18T09:26:47.094Z,-3.95
2022-12-18T09:29:19.082Z,-3.99
2022-12-18T09:31:47.768Z,-3.98
2022-12-18T09:34:16.260Z,-5.12
2022-12-18T09:36:44.903Z,-4.40
2022-12-18T09:39:13.130Z,-4.15
2022-12-18T09:41:55.060Z,-4.20
2022-12-18T09:44:45.428Z,-4.17
2022-12-18T09:47:26.156Z,-4.32
2022-12-18T09:50:02.783Z,-4.24
2022-12-18T09:52:47.825Z,-4.09
2022-12-18T09:55:38.260Z,-3.78
2022-12-18T09:58:33.754Z,-3.76
2022-12-18T10:01:02.305Z,-3.86
2022-12-18T10:03:30.480Z,-3.84
2022-12-18T10:06:20.261Z,-3.98
2022-12-18T10:09:02.632Z,-3.84
2022-12-18T10:11:44.282Z,-3.67
2022-12-18T10:14:57.656Z,-3.83
2022-12-18T10:18:06.041Z,-3.53
2022-12-18T10:20:46.269Z,-4.13
2022-12-18T10:23:55.010Z,-3.56
2022-12-18T10:26:23.265Z,-3.79
2022-12-18T10:28:54.266Z,-3.53
2022-12-18T10:31:25.685Z,-3.83
2022-12-18T10:33:56.333Z,-3.92
2022-12-18T10:36:26.378Z,-3.60
2022-12-18T10:38:54.412Z,-4.23
2022-12-18T10:41:24.380Z,-3.74
2022-12-18T10:44:23.788Z,-4.08
2022-12-18T10:47:10.091Z,-4.34
2022-12-18T10:49:54.122Z,-4.92
2022-12-18T10:52:26.550Z,-4.06
2022-12-18T10:55:05.410Z,-3.92
2022-12-18T10:57:42.735Z,-3.78
2022-12-18T11:00:31.980Z,-3.71
2022-12-18T11:03:03.828Z,-4.22
2022-12-18T11:05:35.556Z,-3.62
2022-12-18T11:08:03.993Z,-3.78
2022-12-18T11:10:34.735Z,-3.93
2022-12-18T11:13:19.525Z,-3.80
2022-12-18T11:15:48.248Z,-4.00
2022-12-18T11:18:32.926Z,-3.99
2022-12-18T11:26:03.783Z,-4.76
2022-12-18T11:28:52.424Z,-4.10
2022-12-18T11:31:29.345Z,-4.02
2022-12-18T11:34:48.497Z,-4.32
2022-12-18T11:37:20.621Z,-4.10
2022-12-18T11:40:19.288Z,-4.14
2022-12-18T11:43:08.154Z,-4.02
2022-12-18T11:46:19.828Z,-4.13
2022-12-18T11:49:02.736Z,-3.97
2022-12-18T11:51:53.459Z,-4.15
2022-12-18T11:54:21.655Z,-4.27
2022-12-18T11:57:07.317Z,-4.49
2022-12-18T11:59:46.764Z,-4.00
2022-12-18T12:02:46.505Z,-3.91
2022-12-18T12:05:45.858Z,-4.05
2022-12-18T12:08:19.804Z,-4.19
2022-12-18T12:11:07.453Z,-4.65
2022-12-18T12:13:51.238Z,-4.11
2022-12-18T12:17:00.229Z,-4.17
2022-12-18T12:19:58.708Z,-3.97
2022-12-18T12:22:40.305Z,-4.32
2022-12-18T12:25:32.374Z,-4.67
2022-12-18T12:28:22.211Z,-4.76
2022-12-18T12:31:21.268Z,-4.52
2022-12-18T12:34:17.976Z,-4.30
2022-12-18T12:37:20.349Z,-4.60
2022-12-18T12:39:49.743Z,-4.81
2022-12-18T12:43:16.386Z,-4.92
2022-12-18T12:46:08.335Z,-4.77
2022-12-18T12:48:50.735Z,-4.93
2022-12-18T12:51:26.943Z,-4.90
2022-12-18T12:53:58.524Z,-5.30
2022-12-18T12:57:01.015Z,-4.91
2022-12-18T12:59:59.978Z,-4.87
2022-12-18T13:03:30.703Z,-4.46
2022-12-18T13:06:34.399Z,-5.11
2022-12-18T13:09:05.398Z,-4.69
2022-12-18T13:12:00.388Z,-4.58
2022-12-18T13:14:40.733Z,-4.97
2022-12-18T13:17:21.723Z,-4.63
2022-12-18T13:20:18.359Z,-4.72
2022-12-18T13:22:51.401Z,-5.04
2022-12-18T13:25:32.234Z,-5.34
2022-12-18T13:28:10.509Z,-5.30
2022-12-18T13:30:50.807Z,-5.09
2022-12-18T13:33:29.979Z,-4.99
2022-12-18T13:36:23.358Z,-4.96
2022-12-18T13:39:36.045Z,-4.91
2022-12-18T13:42:08.789Z,-4.93
2022-12-18T13:44:42.561Z,-5.23
2022-12-18T13:47:36.801Z,-5.79
2022-12-18T13:50:29.704Z,-6.24
2022-12-18T13:53:01.369Z,-6.16
2022-12-18T13:55:30.949Z,-5.88
2022-12-18T13:58:08.155Z,-5.84
2022-12-18T14:00:37.407Z,-5.79
2022-12-18T14:03:28.901Z,-5.85
2022-12-18T14:06:09.488Z,-6.15
2022-12-18T14:08:42.570Z,-5.80
2022-12-18T14:11:25.287Z,-5.99
2022-12-18T14:13:55.497Z,-6.24
2022-12-18T14:16:24.514Z,-6.36
2022-12-18T14:18:58.516Z,-6.72
2022-12-18T14:21:36.273Z,-6.35
2022-12-18T14:24:18.600Z,-6.16
2022-12-18T14:26:51.316Z,-6.02
2022-12-18T14:29:45.863Z,-6.41
2022-12-18T14:32:22.577Z,-5.83
2022-12-18T14:35:14.617Z,-5.78
2022-12-18T14:37:45.831Z,-5.93
2022-12-18T14:40:15.118Z,-6.28
2022-12-18T14:42:43.852Z,-5.86
2022-12-18T14:45:42.224Z,-5.79
2022-12-18T14:48:23.159Z,-6.12
2022-12-18T14:51:19.540Z,-6.17
2022-12-18T14:53:55.501Z,-6.29
2022-12-18T14:56:38.358Z,-5.94
2022-12-18T14:59:24.739Z,-6.08
2022-12-18T15:02:06.128Z,-6.22
2022-12-18T15:04:42.080Z,-6.25
2022-12-18T15:07:24.417Z,-6.19
2022-12-18T15:10:13.781Z,-6.03
2022-12-18T15:12:48.751Z,-6.12
2022-12-18T15:15:37.205Z,-6.07
2022-12-18T15:18:11.557Z,-6.10
2022-12-18T15:20:56.511Z,-6.02
2022-12-18T15:23:46.271Z,-6.23
2022-12-18T15:26:18.415Z,-6.50
2022-12-18T15:29:04.197Z,-6.15
2022-12-18T15:31:36.624Z,-6.16
2022-12-18T15:34:22.212Z,-6.20
2022-12-18T15:36:52.506Z,-6.18
2022-12-18T15:39:20.701Z,-6.25
2022-12-18T15:42:08.956Z,-6.20
2022-12-18T15:44:39.550Z,-6.01
2022-12-18T15:47:19.311Z,-6.34
2022-12-18T15:49:51.613Z,-6.26
2022-12-18T15:52:43.691Z,-5.92
2022-12-18T15:56:01.328Z,-5.97
2022-12-18T15:58:46.604Z,-6.39
2022-12-18T16:01:28.029Z,-6.11
2022-12-18T16:04:17.704Z,-6.03
2022-12-18T16:09:54.581Z,-6.18
2022-12-18T16:12:45.714Z,-6.11
2022-12-18T16:15:24.969Z,-6.47
2022-12-18T16:18:19.422Z,-6.22
2022-12-18T16:20:53.066Z,-6.25
2022-12-18T16:23:23.940Z,-6.30
2022-12-18T16:26:00.067Z,-6.27
2022-12-18T16:29:00.540Z,-6.61
2022-12-18T16:31:34.088Z,-6.43
2022-12-18T16:34:29.843Z,-6.45
2022-12-18T16:37:21.914Z,-6.50
2022-12-18T16:40:13.489Z,-7.15
2022-12-18T16:43:18.989Z,-6.48
2022-12-18T16:45:53.617Z,-6.65
2022-12-18T16:48:38.944Z,-6.88
2022-12-18T16:51:15.167Z,-6.59
2022-12-18T16:53:51.633Z,-7.05
2022-12-18T16:56:23.839Z,-6.93
2022-12-18T16:59:00.154Z,-6.97
2022-12-18T17:01:34.903Z,-6.66
2022-12-18T17:04:19.200Z,-6.66
2022-12-18T17:07:02.806Z,-7.20
2022-12-18T17:09:49.376Z,-6.96
2022-12-18T17:12:24.997Z,-6.57
2022-12-18T17:14:59.031Z,-6.54
2022-12-18T17:17:34.685Z,-6.69
2022-12-18T17:20:06.275Z,-6.76
2022-12-18T17:22:52.040Z,-6.74
2022-12-18T17:25:31.142Z,-6.73
2022-12-18T17:28:41.725Z,-7.29
2022-12-18T17:32:11.525Z,-6.88
2022-12-18T17:35:08.883Z,-6.76
2022-12-18T17:38:17.732Z,-6.74
2022-12-18T17:41:23.127Z,-7.98
2022-12-18T17:44:30.448Z,-6.81
2022-12-18T17:47:01.130Z,-6.83
2022-12-18T17:49:49.256Z,-6.83
2022-12-18T17:53:03.385Z,-6.89
2022-12-18T17:59:07.103Z,-6.80
2022-12-18T18:05:37.676Z,-6.83
2022-12-18T18:08:39.304Z,-6.91
2022-12-18T18:11:31.343Z,-7.21
2022-12-18T18:14:03.071Z,-6.88
2022-12-18T18:16:55.904Z,-6.95
2022-12-18T18:19:26.403Z,-7.21
2022-12-18T18:22:15.340Z,-6.93
2022-12-18T18:24:54.525Z,-6.91
2022-12-18T18:28:04.450Z,-6.83
2022-12-18T18:30:58.591Z,-7.13
2022-12-18T18:34:29.662Z,-6.95
2022-12-18T18:41:06.032Z,-6.84
2022-12-18T18:44:35.676Z,-6.86
2022-12-18T18:47:30.203Z,-6.89
2022-12-18T18:50:07.615Z,-7.14
2022-12-18T18:59:45.332Z,-6.86
2022-12-18T19:03:21.823Z,-6.75
2022-12-18T19:10:43.590Z,-6.78
2022-12-18T19:14:13.461Z,-6.83
2022-12-18T19:17:17.363Z,-6.80
2022-12-18T19:20:12.471Z,-6.76
2022-12-18T19:23:15.134Z,-7.05
2022-12-18T19:25:45.660Z,-6.80
2022-12-18T19:28:27.123Z,-7.18
2022-12-18T19:34:54.747Z,-6.95
2022-12-18T19:37:50.368Z,-7.30
2022-12-18T19:40:32.168Z,-7.05
2022-12-18T19:43:39.639Z,-7.03
2022-12-18T19:46:41.961Z,-7.10
2022-12-18T19:49:27.249Z,-7.05
2022-12-18T19:52:43.945Z,-7.01
2022-12-18T19:55:34.831Z,-7.12
2022-12-18T20:01:27.121Z,-7.30
2022-12-18T20:04:00.586Z,-7.21
2022-12-18T20:07:31.757Z,-6.88
2022-12-18T20:24:42.687Z,-6.67
2022-12-18T20:28:28.051Z,-6.63
2022-12-18T20:31:33.439Z,-6.71
2022-12-18T20:34:53.832Z,-6.78
2022-12-18T20:38:03.966Z,-6.74
2022-12-18T20:41:31.992Z,-6.75
2022-12-18T20:48:26.756Z,-7.16
2022-12-18T20:51:09.205Z,-6.79
2022-12-18T20:53:40.130Z,-6.82
2022-12-18T20:56:22.375Z,-6.74
2022-12-18T20:58:55.102Z,-6.72
2022-12-18T21:01:27.686Z,-6.69
2022-12-18T21:04:20.176Z,-6.63
2022-12-18T21:07:02.363Z,-7.07
2022-12-18T21:18:07.830Z,-6.63
2022-12-18T21:20:37.518Z,-6.64
2022-12-18T21:23:17.103Z,-6.64
2022-12-18T21:25:52.246Z,-6.61
2022-12-18T21:28:26.967Z,-6.67
2022-12-18T21:31:28.653Z,-6.74
2022-12-18T21:34:46.208Z,-6.73
2022-12-18T21:37:37.678Z,-6.72
2022-12-18T21:40:10.922Z,-6.73
2022-12-18T21:42:57.898Z,-6.81
2022-12-18T21:45:26.664Z,-7.18
2022-12-18T21:47:59.549Z,-6.83
2022-12-18T21:50:31.821Z,-6.86
2022-12-18T21:53:06.213Z,-6.93
2022-12-18T21:55:39.357Z,-6.87
2022-12-18T21:59:08.849Z,-7.33
2022-12-18T22:01:42.476Z,-7.22
2022-12-18T22:04:11.794Z,-6.91
2022-12-18T22:09:59.500Z,-6.92
2022-12-18T22:17:26.195Z,-7.15
2022-12-18T22:20:31.460Z,-7.63
2022-12-18T22:23:06.570Z,-7.70
2022-12-18T22:25:39.686Z,-7.46
2022-12-18T22:28:28.396Z,-7.68
2022-12-18T22:30:59.201Z,-7.68
2022-12-18T22:33:29.538Z,-7.79
2022-12-18T22:35:57.931Z,-7.94
2022-12-18T22:38:27.230Z,-8.38
2022-12-18T22:40:55.715Z,-8.12
2022-12-18T22:43:23.955Z,-8.17
2022-12-18T22:45:52.314Z,-8.48
2022-12-18T22:48:21.197Z,-8.36
2022-12-18T22:50:49.872Z,-8.43
2022-12-18T22:53:19.496Z,-8.49
2022-12-18T22:55:48.163Z,-8.41
2022-12-18T22:58:16.184Z,-8.23
2022-12-18T23:00:44.244Z,-8.12
2022-12-18T23:03:12.844Z,-8.02
2022-12-18T23:05:40.927Z,-8.46
2022-12-18T23:08:09.368Z,-8.07
2022-12-18T23:10:40.846Z,-7.99
2022-12-18T23:13:09.203Z,-8.01
2022-12-18T23:15:43.280Z,-8.44
2022-12-18T23:18:12.002Z,-8.30
2022-12-18T23:20:40.328Z,-8.19
2022-12-18T23:23:10.050Z,-8.23
2022-12-18T23:25:38.320Z,-8.77
2022-12-18T23:28:06.537Z,-8.55
2022-12-18T23:30:35.278Z,-8.87
2022-12-18T23:33:03.750Z,-8.50
2022-12-18T23:35:31.935Z,-8.92
2022-12-18T23:38:00.652Z,-8.86
2022-12-18T23:40:30.003Z,-8.59
2022-12-18T23:43:00.387Z,-8.67
2022-12-18T23:45:28.668Z,-8.99
2022-12-18T23:47:56.656Z,-8.98
2022-12-18T23:50:29.727Z,-9.16
2022-12-18T23:53:00.724Z,-9.24
2022-12-18T23:55:38.752Z,-9.41
2022-12-18T23:58:08.564Z,-9.50
